Time;durP1;ratioP1;P1;durP2;ratioP2;P2;SDS_P1;SDS_P2;PMS_P1;PMS_P2;Temp;Humidity;BMP_temperature;BMP_pressure;BME280_temperature;BME280_humidity;BME280_pressure;Samples;Min_cycle;Max_cycle;Signal;HPM_P1;HPM_P2
2024/03/15 00:02:10;;;;;;;2.10;2.00;;;23.70;1.00;;;;;;2610989;54;20157;-60
2024/03/15 00:04:37;;;;;;;1.90;1.80;;;23.70;1.00;;;;;;2610432;54;20167;-60
2024/03/15 00:07:03;;;;;;;2.00;1.90;;;23.70;1.00;;;;;;2612046;54;20496;-60
2024/03/15 00:09:28;;;;;;;2.17;2.07;;;23.60;1.00;;;;;;2612295;54;20391;-66
2024/03/15 00:11:55;;;;;;;1.90;1.80;;;23.60;1.00;;;;;;2613042;54;20412;-66
2024/03/15 00:14:22;;;;;;;2.20;2.10;;;23.70;1.00;;;;;;2612828;54;20269;-67
2024/03/15 00:16:50;;;;;;;2.30;2.20;;;23.70;1.00;;;;;;2613734;39;20723;-67
2024/03/15 00:19:17;;;;;;;2.00;1.90;;;23.60;1.00;;;;;;2612388;54;20427;-67
2024/03/15 00:21:42;;;;;;;2.10;2.00;;;23.60;1.00;;;;;;2611824;54;20440;-67
2024/03/15 00:24:08;;;;;;;2.20;2.10;;;23.60;1.00;;;;;;2612759;54;20956;-67
2024/03/15 00:26:37;;;;;;;1.90;1.80;;;23.60;1.00;;;;;;2612755;54;20407;-65
2024/03/15 00:29:03;;;;;;;2.20;2.10;;;23.50;1.00;;;;;;2612899;31;20925;-65
2024/03/15 00:31:29;;;;;;;2.10;2.00;;;23.50;1.00;;;;;;2613128;54;20403;-65
2024/03/15 00:33:55;;;;;;;1.97;1.87;;;23.50;1.00;;;;;;2612505;54;20387;-66
2024/03/15 00:36:21;;;;;;;1.90;1.80;;;23.50;1.00;;;;;;2612614;54;20502;-66
2024/03/15 00:38:47;;;;;;;1.90;1.80;;;23.60;1.00;;;;;;2613033;54;20193;-65
2024/03/15 00:41:12;;;;;;;2.00;1.90;;;23.60;1.00;;;;;;2612029;39;20796;-63
2024/03/15 00:43:38;;;;;;;2.00;1.90;;;23.60;1.00;;;;;;2612852;54;20165;-64
2024/03/15 00:46:04;;;;;;;2.00;1.90;;;23.60;1.00;;;;;;2611856;54;20178;-64
2024/03/15 00:48:30;;;;;;;2.00;1.90;;;23.60;1.00;;;;;;2612872;54;20217;-64
2024/03/15 00:50:56;;;;;;;2.20;2.10;;;23.60;1.00;;;;;;2611809;47;20511;-64
2024/03/15 00:53:22;;;;;;;2.00;1.90;;;23.60;1.00;;;;;;2613436;47;20182;-64
2024/03/15 00:55:47;;;;;;;2.00;1.90;;;23.60;1.00;;;;;;2611855;54;20442;-64
2024/03/15 00:58:14;;;;;;;2.30;2.20;;;23.50;1.00;;;;;;2612255;39;20765;-64
2024/03/15 01:00:39;;;;;;;2.03;1.93;;;23.50;1.00;;;;;;2610143;54;20214;-64
2024/03/15 01:03:05;;;;;;;2.10;2.00;;;23.50;1.00;;;;;;2611425;54;20515;-65
2024/03/15 01:05:31;;;;;;;1.93;1.83;;;23.50;1.00;;;;;;2610818;47;20177;-64
2024/03/15 01:07:56;;;;;;;2.20;2.10;;;23.50;1.00;;;;;;2611787;54;20151;-64
2024/03/15 01:10:22;;;;;;;1.90;1.80;;;23.50;1.00;;;;;;2611441;54;20202;-64
2024/03/15 01:12:48;;;;;;;2.00;1.90;;;23.50;1.00;;;;;;2611103;54;20154;-64
2024/03/15 01:15:13;;;;;;;2.10;2.00;;;23.50;1.00;;;;;;2611949;54;20262;-64
2024/03/15 01:17:39;;;;;;;2.30;2.20;;;23.50;1.00;;;;;;2611652;39;20555;-64
2024/03/15 01:20:06;;;;;;;2.20;2.10;;;23.50;1.00;;;;;;2611537;54;20749;-61
2024/03/15 01:22:32;;;;;;;2.10;2.00;;;23.50;1.00;;;;;;2611371;54;20189;-62
2024/03/15 01:24:58;;;;;;;1.90;1.80;;;23.50;1.00;;;;;;2612741;54;20400;-62
2024/03/15 01:27:24;;;;;;;2.27;2.17;;;23.50;1.00;;;;;;2611297;54;20388;-62
2024/03/15 01:29:53;;;;;;;2.17;2.07;;;23.50;1.00;;;;;;2610947;54;20415;-61
2024/03/15 01:32:19;;;;;;;1.90;1.80;;;23.50;1.00;;;;;;2612472;39;20873;-61
2024/03/15 01:34:45;;;;;;;1.97;1.87;;;23.40;1.00;;;;;;2611075;54;20523;-61
2024/03/15 01:37:11;;;;;;;2.10;2.00;;;23.40;1.00;;;;;;2610900;54;20147;-62
2024/03/15 01:39:38;;;;;;;2.10;2.00;;;23.40;1.00;;;;;;2611740;54;20434;-63
2024/03/15 01:42:03;;;;;;;2.20;2.10;;;23.40;1.00;;;;;;2611766;54;20406;-64
2024/03/15 01:44:56;;;;;;;2.20;2.10;;;23.50;1.00;;;;;;2612021;54;20400;-63
2024/03/15 01:47:26;;;;;;;2.10;2.00;;;23.50;1.00;;;;;;2611882;54;20154;-64
2024/03/15 01:49:57;;;;;;;1.80;1.70;;;23.40;1.00;;;;;;2611734;54;20423;-62
2024/03/15 01:52:24;;;;;;;1.90;1.80;;;23.40;1.00;;;;;;2612199;54;20431;-62
2024/03/15 01:54:50;;;;;;;2.13;2.03;;;23.50;1.00;;;;;;2610863;54;20427;-63
2024/03/15 01:57:17;;;;;;;1.93;1.83;;;23.50;1.00;;;;;;2611969;54;20957;-63
2024/03/15 01:59:46;;;;;;;1.90;1.80;;;23.40;1.00;;;;;;2611190;54;20442;-63
2024/03/15 02:02:13;;;;;;;2.10;2.00;;;23.40;1.00;;;;;;2611333;54;20400;-62
2024/03/15 02:04:40;;;;;;;2.10;2.00;;;23.40;1.00;;;;;;2610773;54;20403;-63
2024/03/15 02:07:06;;;;;;;2.00;1.90;;;23.40;1.00;;;;;;2611628;54;20470;-62
2024/03/15 02:09:32;;;;;;;1.90;1.80;;;23.40;1.00;;;;;;2610980;54;20415;-62
2024/03/15 02:11:58;;;;;;;2.20;2.10;;;23.40;1.00;;;;;;2610441;47;20426;-62
2024/03/15 02:14:25;;;;;;;2.10;2.00;;;23.40;1.00;;;;;;2610821;54;20996;-62
2024/03/15 02:16:53;;;;;;;1.90;1.80;;;23.40;1.00;;;;;;2612022;54;20188;-62
2024/03/15 02:19:19;;;;;;;2.10;2.00;;;23.40;1.00;;;;;;2611083;54;20993;-63
2024/03/15 02:21:48;;;;;;;2.00;1.90;;;23.40;1.00;;;;;;2611622;54;20546;-63
2024/03/15 02:24:14;;;;;;;1.90;1.80;;;23.30;1.00;;;;;;2610763;54;20418;-62
2024/03/15 02:26:41;;;;;;;2.00;1.90;;;23.30;1.00;;;;;;2611890;54;20454;-63
2024/03/15 02:29:12;;;;;;;3.17;2.97;;;23.40;1.00;;;;;;2611598;54;20446;-63
2024/03/15 02:31:38;;;;;;;2.27;2.17;;;23.40;1.00;;;;;;2613553;39;20818;-76
2024/03/15 02:34:04;;;;;;;2.10;2.00;;;23.40;1.00;;;;;;2612461;54;20445;-75
2024/03/15 02:36:30;;;;;;;1.90;1.80;;;23.40;1.00;;;;;;2611897;54;20427;-75
2024/03/15 02:38:56;;;;;;;2.00;1.90;;;23.40;1.00;;;;;;2612528;49;20500;-75
2024/03/15 02:41:22;;;;;;;2.00;1.90;;;23.40;1.00;;;;;;2611423;47;22341;-75
2024/03/15 02:43:48;;;;;;;1.90;1.80;;;23.40;1.00;;;;;;2612507;54;20399;-74
2024/03/15 02:46:17;;;;;;;1.87;1.77;;;23.40;1.00;;;;;;2612303;54;20407;-75
2024/03/15 02:48:46;;;;;;;2.00;1.90;;;23.40;1.00;;;;;;2612866;54;20147;-75
2024/03/15 02:51:11;;;;;;;1.90;1.80;;;23.30;1.00;;;;;;2612167;54;20388;-60
2024/03/15 02:53:37;;;;;;;1.70;1.60;;;23.30;1.00;;;;;;2612515;39;20828;-60
2024/03/15 02:56:03;;;;;;;1.97;1.87;;;23.30;1.00;;;;;;2611749;54;20170;-60
2024/03/15 02:58:30;;;;;;;1.90;1.80;;;23.30;1.00;;;;;;2612316;39;20587;-60
2024/03/15 03:00:56;;;;;;;1.93;1.83;;;23.30;1.00;;;;;;2611648;54;20418;-64
2024/03/15 03:03:22;;;;;;;1.73;1.63;;;23.30;1.00;;;;;;2610841;54;20428;-63
2024/03/15 03:05:48;;;;;;;2.07;1.97;;;23.30;1.00;;;;;;2609650;54;20480;-64
2024/03/15 03:08:14;;;;;;;1.93;1.83;;;23.30;1.00;;;;;;2612179;54;20404;-66
2024/03/15 03:10:41;;;;;;;2.00;1.90;;;23.40;1.00;;;;;;2612269;54;20439;-64
2024/03/15 03:13:07;;;;;;;2.10;2.00;;;23.40;1.00;;;;;;2611076;54;21517;-64
2024/03/15 03:15:33;;;;;;;1.97;1.87;;;23.40;1.00;;;;;;2612321;47;20454;-64
2024/03/15 03:17:59;;;;;;;2.20;2.10;;;23.40;1.00;;;;;;2611704;47;20434;-64
2024/03/15 03:20:32;;;;;;;2.00;1.90;;;23.30;1.00;;;;;;2611470;54;20428;-64
2024/03/15 03:22:59;;;;;;;2.10;2.00;;;23.30;1.00;;;;;;2612136;54;20410;-64
2024/03/15 03:25:26;;;;;;;2.00;1.90;;;23.30;1.00;;;;;;2612038;47;20431;-64
2024/03/15 03:27:51;;;;;;;2.00;1.90;;;23.30;1.00;;;;;;2612011;54;20422;-64
2024/03/15 03:30:17;;;;;;;2.00;1.90;;;23.30;1.00;;;;;;2611568;54;20399;-64
2024/03/15 03:32:43;;;;;;;2.00;1.90;;;23.30;1.00;;;;;;2612208;47;20151;-64
2024/03/15 03:35:09;;;;;;;1.90;1.80;;;23.40;1.00;;;;;;2612622;54;20242;-64
2024/03/15 03:37:35;;;;;;;1.80;1.70;;;23.30;1.00;;;;;;2611718;54;20194;-64
2024/03/15 03:40:05;;;;;;;2.40;2.30;;;23.30;1.00;;;;;;2611644;54;20965;-66
2024/03/15 03:42:31;;;;;;;2.00;1.90;;;23.30;1.00;;;;;;2612647;54;20154;-66
2024/03/15 03:44:58;;;;;;;1.97;1.87;;;23.30;1.00;;;;;;2611614;54;20508;-66
2024/03/15 03:47:23;;;;;;;2.23;2.13;;;23.30;1.00;;;;;;2612540;54;20166;-66
2024/03/15 03:49:52;;;;;;;2.20;2.10;;;23.20;1.00;;;;;;2612192;54;20952;-66
2024/03/15 03:52:19;;;;;;;2.30;2.20;;;23.30;1.00;;;;;;2611329;47;20210;-65
2024/03/15 03:54:44;;;;;;;2.17;2.07;;;23.30;1.00;;;;;;2612462;54;20447;-65
2024/03/15 03:57:23;;;;;;;2.10;2.00;;;23.20;1.00;;;;;;2612046;54;20435;-66
2024/03/15 03:59:49;;;;;;;2.20;2.10;;;23.20;1.00;;;;;;2610941;54;20147;-64
2024/03/15 04:02:14;;;;;;;2.30;2.20;;;23.30;1.00;;;;;;2610486;54;20400;-63
2024/03/15 04:04:42;;;;;;;2.33;2.23;;;23.30;1.00;;;;;;2611860;31;20896;-64
2024/03/15 04:07:09;;;;;;;2.30;2.20;;;23.30;1.00;;;;;;2612606;39;20563;-64
2024/03/15 04:09:35;;;;;;;2.10;2.00;;;23.30;1.00;;;;;;2612057;54;20440;-64
2024/03/15 04:12:01;;;;;;;2.10;2.00;;;23.30;1.00;;;;;;2612049;54;20941;-64
2024/03/15 04:14:27;;;;;;;2.10;2.00;;;23.30;1.00;;;;;;2611453;54;20419;-64
2024/03/15 04:16:54;;;;;;;2.20;2.10;;;23.30;1.00;;;;;;2612341;54;20399;-64
2024/03/15 04:19:20;;;;;;;2.10;2.00;;;23.30;1.00;;;;;;2612011;54;20257;-63
2024/03/15 04:21:46;;;;;;;2.30;2.20;;;23.30;1.00;;;;;;2611330;54;20410;-63
2024/03/15 04:24:12;;;;;;;2.10;2.00;;;23.30;1.00;;;;;;2612290;39;20443;-64
2024/03/15 04:26:38;;;;;;;2.20;2.10;;;23.30;1.00;;;;;;2611985;47;20526;-64
2024/03/15 04:29:05;;;;;;;2.00;1.90;;;23.30;1.00;;;;;;2612244;54;20151;-64
2024/03/15 04:31:32;;;;;;;2.40;2.30;;;23.30;1.00;;;;;;2611644;54;20220;-64
2024/03/15 04:33:58;;;;;;;2.30;2.20;;;23.30;1.00;;;;;;2611893;47;20422;-64
2024/03/15 04:36:30;;;;;;;2.33;2.23;;;23.30;1.00;;;;;;2612137;54;20949;-64
2024/03/15 04:38:56;;;;;;;2.20;2.10;;;23.30;1.00;;;;;;2612054;47;20174;-64
2024/03/15 04:41:22;;;;;;;2.30;2.20;;;23.30;1.00;;;;;;2611716;54;20388;-64
2024/03/15 04:43:49;;;;;;;2.30;2.20;;;23.30;1.00;;;;;;2612278;39;20844;-63
2024/03/15 04:46:16;;;;;;;2.10;2.00;;;23.30;1.00;;;;;;2611346;54;20410;-63
2024/03/15 04:48:43;;;;;;;1.90;1.80;;;23.20;1.00;;;;;;2611248;54;20431;-63
2024/03/15 04:51:08;;;;;;;2.00;1.90;;;23.20;1.00;;;;;;2612801;39;20806;-64
2024/03/15 04:53:34;;;;;;;2.10;2.00;;;23.20;1.00;;;;;;2613675;54;20471;-64
2024/03/15 04:56:00;;;;;;;2.10;2.00;;;23.20;1.00;;;;;;2612732;31;20762;-63
2024/03/15 04:58:30;;;;;;;2.10;2.00;;;23.30;1.00;;;;;;2612761;54;20182;-64
2024/03/15 05:00:56;;;;;;;1.97;1.87;;;23.20;1.00;;;;;;2612427;39;20589;-64
2024/03/15 05:03:22;;;;;;;1.60;1.50;;;23.30;1.00;;;;;;2610585;54;20419;-65
2024/03/15 05:05:49;;;;;;;2.10;2.00;;;23.20;1.00;;;;;;2611470;54;20174;-63
2024/03/15 05:08:15;;;;;;;1.70;1.60;;;23.30;1.00;;;;;;2611460;54;20415;-63
2024/03/15 05:10:41;;;;;;;1.93;1.83;;;23.40;1.00;;;;;;2611184;54;20399;-60
2024/03/15 05:13:06;;;;;;;2.00;1.90;;;23.40;1.00;;;;;;2612744;47;20162;-60
2024/03/15 05:15:35;;;;;;;1.90;1.80;;;23.40;1.00;;;;;;2612523;54;20166;-60
2024/03/15 05:18:01;;;;;;;2.20;2.10;;;23.40;1.00;;;;;;2612916;39;20529;-60
2024/03/15 05:20:27;;;;;;;2.20;2.10;;;23.40;1.00;;;;;;2612681;54;20427;-66
2024/03/15 05:22:52;;;;;;;1.80;1.70;;;23.40;1.00;;;;;;2613128;54;20166;-66
2024/03/15 05:25:18;;;;;;;2.10;2.00;;;23.40;1.00;;;;;;2612337;39;20586;-66
2024/03/15 05:27:47;;;;;;;2.20;2.10;;;23.50;1.00;;;;;;2613350;54;20175;-66
2024/03/15 05:30:14;;;;;;;2.00;1.90;;;23.50;1.00;;;;;;2612786;50;20165;-65
2024/03/15 05:32:39;;;;;;;2.30;2.20;;;23.50;1.00;;;;;;2613646;54;20427;-67
2024/03/15 05:35:06;;;;;;;2.20;2.10;;;23.50;1.00;;;;;;2612627;47;20427;-67
2024/03/15 05:37:31;;;;;;;1.70;1.60;;;23.40;1.00;;;;;;2612588;54;20162;-67
2024/03/15 05:39:57;;;;;;;2.20;2.10;;;23.30;1.00;;;;;;2611713;54;21239;-67
2024/03/15 05:42:25;;;;;;;2.40;2.30;;;23.30;1.00;;;;;;2614053;54;20147;-67
2024/03/15 05:44:51;;;;;;;2.10;2.00;;;23.40;1.00;;;;;;2611820;39;20751;-66
2024/03/15 05:47:17;;;;;;;2.00;1.90;;;23.40;1.00;;;;;;2612672;54;20511;-67
2024/03/15 05:49:43;;;;;;;2.40;2.30;;;23.40;1.00;;;;;;2613667;39;20791;-67
2024/03/15 05:52:10;;;;;;;2.30;2.20;;;23.40;1.00;;;;;;2611781;54;20194;-66
2024/03/15 05:54:37;;;;;;;2.50;2.40;;;23.30;1.00;;;;;;2612171;54;20482;-67
2024/03/15 05:57:04;;;;;;;2.20;2.10;;;23.30;1.00;;;;;;2611542;54;20391;-67
2024/03/15 05:59:31;;;;;;;2.37;2.27;;;23.30;1.00;;;;;;2610416;54;20427;-64
2024/03/15 06:01:57;;;;;;;2.40;2.30;;;23.30;1.00;;;;;;2611189;54;20445;-64
2024/03/15 06:04:23;;;;;;;2.60;2.50;;;23.30;1.00;;;;;;2611960;54;20419;-64
2024/03/15 06:06:48;;;;;;;2.10;2.00;;;23.40;1.00;;;;;;2610199;54;20457;-65
2024/03/15 06:09:14;;;;;;;2.50;2.40;;;23.30;1.00;;;;;;2610243;54;20151;-64
2024/03/15 06:11:39;;;;;;;2.30;2.20;;;23.40;1.00;;;;;;2611190;54;20241;-65
2024/03/15 06:14:05;;;;;;;2.10;2.00;;;23.40;1.00;;;;;;2610608;54;20143;-64
2024/03/15 06:16:31;;;;;;;2.20;2.10;;;23.30;1.00;;;;;;2610895;54;20166;-64
2024/03/15 06:18:58;;;;;;;2.20;2.10;;;23.40;1.00;;;;;;2609284;54;20151;-64
2024/03/15 06:21:26;;;;;;;1.90;1.80;;;23.40;1.00;;;;;;2610001;54;20404;-75
2024/03/15 06:23:54;;;;;;;1.70;1.60;;;23.40;1.00;;;;;;2609762;47;20431;-74
2024/03/15 06:26:20;;;;;;;2.10;2.00;;;23.40;1.00;;;;;;2610859;54;20458;-74
2024/03/15 06:28:45;;;;;;;2.30;2.20;;;23.40;1.00;;;;;;2611210;47;20423;-74
2024/03/15 06:31:11;;;;;;;1.90;1.80;;;23.40;1.00;;;;;;2610795;54;20265;-66
2024/03/15 06:33:38;;;;;;;1.90;1.80;;;23.40;1.00;;;;;;2610772;54;20162;-67
2024/03/15 06:36:03;;;;;;;2.10;2.00;;;23.40;1.00;;;;;;2611132;54;20487;-66
2024/03/15 06:44:19;;;;;;;2.00;1.90;;;23.40;1.00;;;;;;2609167;54;21257;-66
2024/03/15 06:47:14;;;;;;;3.63;3.53;;;23.40;1.00;;;;;;2610774;39;20878;-62
2024/03/15 06:49:44;;;;;;;3.40;3.30;;;23.50;1.00;;;;;;2610164;54;20425;-63
2024/03/15 06:52:34;;;;;;;3.40;3.30;;;23.70;1.00;;;;;;2610825;54;20392;-63
2024/03/15 06:55:10;;;;;;;3.40;3.30;;;23.90;1.00;;;;;;2608194;51;20432;-64
2024/03/15 06:57:38;;;;;;;3.47;3.37;;;24.00;1.00;;;;;;2607662;54;20399;-62
2024/03/15 07:00:09;;;;;;;3.20;3.10;;;24.00;1.00;;;;;;2609471;54;20407;-63
2024/03/15 07:02:40;;;;;;;3.57;3.47;;;24.10;1.00;;;;;;2610174;54;20476;-60
2024/03/15 07:05:07;;;;;;;2.40;2.30;;;24.10;1.00;;;;;;2608442;54;20437;-60
2024/03/15 07:07:36;;;;;;;3.97;3.87;;;24.10;1.00;;;;;;2609015;54;21528;-63
2024/03/15 07:10:04;;;;;;;1.40;1.30;;;24.20;1.00;;;;;;2608993;54;20412;-61
2024/03/15 07:12:30;;;;;;;0.70;0.70;;;24.30;1.00;;;;;;2610538;54;20452;-63
2024/03/15 07:14:56;;;;;;;0.70;0.70;;;24.40;1.00;;;;;;2609300;54;20419;-63
2024/03/15 07:17:22;;;;;;;0.60;0.60;;;24.50;1.00;;;;;;2611034;54;20515;-62
2024/03/15 07:19:49;;;;;;;0.67;0.60;;;24.60;1.00;;;;;;2606221;39;20595;-61
2024/03/15 07:22:15;;;;;;;0.70;0.70;;;24.60;1.00;;;;;;2608369;54;20434;-62
2024/03/15 07:24:48;;;;;;;1.00;1.00;;;24.60;1.00;;;;;;2605956;54;20471;-62
2024/03/15 07:27:14;;;;;;;1.00;1.00;;;24.70;1.00;;;;;;2605362;54;20151;-62
2024/03/15 07:29:40;;;;;;;0.90;0.90;;;24.70;1.00;;;;;;2608484;54;20427;-59
2024/03/15 07:32:06;;;;;;;1.00;1.00;;;24.60;1.00;;;;;;2609138;47;20531;-59
2024/03/15 07:34:32;;;;;;;1.00;1.00;;;24.60;1.00;;;;;;2610652;54;20155;-59
2024/03/15 07:36:58;;;;;;;1.00;1.00;;;24.60;1.00;;;;;;2610445;54;20583;-59
2024/03/15 07:39:29;;;;;;;1.60;1.53;;;24.60;1.00;;;;;;2609781;54;20433;-61
2024/03/15 07:42:00;;;;;;;7.50;7.30;;;24.70;1.00;;;;;;2610848;54;20178;-60
2024/03/15 07:44:27;;;;;;;7.07;6.87;;;24.70;1.00;;;;;;2611223;47;20455;-61
2024/03/15 07:46:56;;;;;;;7.30;7.10;;;24.70;1.00;;;;;;2609713;54;20402;-61
2024/03/15 07:49:25;;;;;;;7.37;7.17;;;24.70;1.00;;;;;;2611598;39;20817;-61
2024/03/15 07:51:51;;;;;;;7.40;7.20;;;24.70;1.00;;;;;;2609004;54;20399;-61
2024/03/15 07:54:18;;;;;;;7.23;7.03;;;24.70;1.00;;;;;;2610732;39;20846;-61
2024/03/15 07:56:44;;;;;;;7.07;6.87;;;24.70;1.00;;;;;;2610003;54;20410;-61
2024/03/15 07:59:13;;;;;;;6.80;6.60;;;24.70;1.00;;;;;;2610442;54;20506;-60
2024/03/15 08:01:39;;;;;;;7.33;7.13;;;24.70;1.00;;;;;;2607475;47;20427;-61
2024/03/15 08:04:08;;;;;;;7.30;7.10;;;24.70;1.00;;;;;;2610478;50;20455;-61
2024/03/15 08:06:35;;;;;;;6.53;6.33;;;24.70;1.00;;;;;;2609549;54;20403;-61
2024/03/15 08:09:05;;;;;;;6.60;6.40;;;24.70;1.00;;;;;;2610011;54;20515;-61
2024/03/15 08:11:35;;;;;;;7.03;6.83;;;24.70;1.00;;;;;;2611028;54;20409;-61
2024/03/15 08:14:02;;;;;;;6.73;6.53;;;24.70;1.00;;;;;;2611008;54;20395;-61
2024/03/15 08:16:35;;;;;;;6.53;6.33;;;24.70;1.00;;;;;;2610399;54;20407;-61
2024/03/15 08:19:04;;;;;;;7.20;7.00;;;24.80;1.00;;;;;;2610713;39;20800;-61
2024/03/15 08:21:30;;;;;;;6.70;6.50;;;24.80;1.00;;;;;;2611851;31;20904;-70
2024/03/15 08:23:57;;;;;;;6.70;6.50;;;24.80;1.00;;;;;;2610409;39;21331;-70
2024/03/15 08:26:22;;;;;;;6.60;6.40;;;24.80;1.00;;;;;;2608472;54;20403;-69
2024/03/15 08:28:51;;;;;;;6.23;6.03;;;24.70;1.00;;;;;;2612725;54;20426;-69
2024/03/15 08:31:17;;;;;;;6.50;6.30;;;24.70;1.00;;;;;;2612235;47;20262;-70
2024/03/15 08:33:47;;;;;;;3.10;3.00;;;24.80;1.00;;;;;;2611333;54;20426;-67
2024/03/15 08:36:13;;;;;;;3.73;3.63;;;24.80;1.00;;;;;;2611680;47;20433;-67
2024/03/15 08:38:39;;;;;;;4.33;4.23;;;24.70;1.00;;;;;;2611280;54;20415;-68
2024/03/15 08:41:06;;;;;;;3.60;3.50;;;24.70;1.00;;;;;;2611233;54;20151;-66
2024/03/15 08:43:32;;;;;;;4.03;3.93;;;24.60;1.00;;;;;;2611350;54;20441;-67
2024/03/15 08:45:58;;;;;;;3.70;3.60;;;24.60;1.00;;;;;;2610603;54;20439;-66
2024/03/15 08:48:26;;;;;;;3.03;2.93;;;24.60;1.00;;;;;;2608702;47;20431;-67
2024/03/15 08:50:52;;;;;;;3.43;3.33;;;24.60;1.00;;;;;;2610007;54;20434;-67
2024/03/15 08:53:18;;;;;;;3.20;3.10;;;24.60;1.00;;;;;;2610881;39;20829;-67
2024/03/15 08:55:44;;;;;;;3.20;3.10;;;24.60;1.00;;;;;;2610441;54;20162;-67
2024/03/15 08:58:10;;;;;;;3.47;3.37;;;24.70;1.00;;;;;;2609471;54;20720;-67
2024/03/15 09:04:18;;;;;;;3.60;3.50;;;24.60;1.00;;;;;;2607391;54;20415;-67
2024/03/15 09:10:15;;;;;;;3.50;3.40;;;24.50;1.00;;;;;;2610310;54;20383;-67
2024/03/15 09:56:29;;;;;;;3.73;3.63;;;24.60;1.00;;;;;;2610595;54;20451;-63
2024/03/15 12:07:45;;;;;;;3.90;3.80;;;25.00;1.00;;;;;;2611678;54;20451;-59
2024/03/15 12:10:15;;;;;;;3.60;3.50;;;25.00;1.00;;;;;;2610408;54;20423;-63
2024/03/15 13:00:13;;;;;;;3.30;3.20;;;24.50;1.00;;;;;;2611284;54;20407;-65
2024/03/15 13:53:12;;;;;;;9.30;9.00;;;24.80;1.00;;;;;;2610707;54;20443;-61
2024/03/15 13:59:00;;;;;;;11.93;11.52;;;24.80;1.00;;;;;;2611960;54;20419;-65
2024/03/15 14:01:25;;;;;;;12.00;11.60;;;24.80;1.00;;;;;;2610439;54;20143;-67
2024/03/15 17:07:13;;;;;;;4.37;4.27;;;26.10;1.00;;;;;;2610697;54;20486;-67
2024/03/15 17:35:49;;;;;;;2.90;2.80;;;26.20;1.00;;;;;;2537163;54;22416;-70
2024/03/15 17:38:34;;;;;;;2.80;2.70;;;26.30;1.00;;;;;;2480214;54;21201;-70
